createdAt,value
2022-10-03T00:01:44.222Z,0.90
2022-10-03T00:04:22.982Z,1.03
2022-10-03T00:07:05.340Z,1.00
2022-10-03T00:09:49.965Z,1.20
2022-10-03T00:12:40.279Z,1.03
2022-10-03T00:15:15.282Z,1.10
2022-10-03T00:17:51.858Z,0.90
2022-10-03T00:20:39.830Z,0.90
2022-10-03T00:23:14.935Z,0.90
2022-10-03T00:25:49.032Z,0.87
2022-10-03T00:28:26.777Z,0.90
2022-10-03T00:31:09.378Z,0.97
2022-10-03T00:33:52.210Z,1.00
2022-10-03T00:36:28.614Z,0.90
2022-10-03T00:39:26.780Z,1.00
2022-10-03T00:42:47.519Z,0.90
2022-10-03T00:46:00.708Z,0.90
2022-10-03T00:48:58.232Z,1.07
2022-10-03T00:51:35.019Z,1.07
2022-10-03T00:54:19.381Z,1.03
2022-10-03T00:57:13.316Z,1.07
2022-10-03T00:59:57.922Z,1.20
2022-10-03T01:03:05.274Z,1.07
2022-10-03T01:05:46.899Z,1.00
2022-10-03T01:08:49.043Z,1.00
2022-10-03T01:11:31.936Z,1.00
2022-10-03T01:14:13.836Z,1.10
2022-10-03T01:16:48.171Z,1.00
2022-10-03T01:19:40.351Z,1.10
2022-10-03T01:22:51.039Z,1.00
2022-10-03T01:25:21.317Z,1.07
2022-10-03T01:28:20.641Z,1.07
2022-10-03T01:30:55.564Z,1.00
2022-10-03T01:33:31.433Z,1.00
2022-10-03T01:36:04.998Z,1.10
2022-10-03T01:38:39.518Z,1.10
2022-10-03T01:41:12.503Z,1.00
2022-10-03T01:43:47.009Z,1.10
2022-10-03T01:46:22.727Z,1.00
2022-10-03T01:49:00.685Z,0.90
2022-10-03T01:51:34.839Z,1.10
2022-10-03T01:54:13.599Z,1.00
2022-10-03T01:56:48.294Z,0.93
2022-10-03T01:59:23.624Z,0.90
2022-10-03T02:01:59.180Z,0.80
2022-10-03T02:04:37.817Z,1.00
2022-10-03T02:07:13.828Z,0.80
2022-10-03T02:09:55.475Z,0.80
2022-10-03T02:12:35.046Z,0.57
2022-10-03T02:15:11.694Z,0.60
2022-10-03T02:17:54.031Z,0.80
2022-10-03T02:20:29.515Z,0.93
2022-10-03T02:22:59.079Z,0.90
2022-10-03T02:25:35.341Z,0.70
2022-10-03T02:28:45.570Z,0.70
2022-10-03T02:31:39.479Z,0.80
2022-10-03T02:34:45.531Z,0.70
2022-10-03T02:37:51.180Z,0.70
2022-10-03T02:40:35.199Z,0.60
2022-10-03T02:43:45.712Z,0.80
2022-10-03T02:46:48.854Z,0.70
2022-10-03T02:49:52.492Z,0.60
2022-10-03T02:52:48.808Z,0.70
2022-10-03T02:55:44.501Z,0.80
2022-10-03T02:58:39.893Z,0.73
2022-10-03T03:01:50.273Z,0.70
2022-10-03T03:04:47.785Z,0.63
2022-10-03T03:07:38.249Z,0.70
2022-10-03T03:10:34.447Z,0.63
2022-10-03T03:13:27.292Z,0.60
2022-10-03T03:16:41.952Z,0.70
2022-10-03T03:19:49.244Z,0.60
2022-10-03T03:22:35.318Z,0.70
2022-10-03T03:25:29.094Z,0.90
2022-10-03T03:28:13.046Z,0.60
2022-10-03T03:30:49.373Z,0.70
2022-10-03T03:33:29.185Z,0.63
2022-10-03T03:36:05.371Z,0.80
2022-10-03T03:38:43.050Z,0.70
2022-10-03T03:41:26.735Z,0.80
2022-10-03T03:44:07.535Z,0.60
2022-10-03T03:46:45.872Z,0.80
2022-10-03T03:49:31.757Z,0.80
2022-10-03T03:52:34.610Z,0.73
2022-10-03T03:55:27.761Z,0.70
2022-10-03T03:58:19.142Z,0.70
2022-10-03T04:01:03.541Z,0.60
2022-10-03T04:03:48.249Z,0.70
2022-10-03T04:06:36.585Z,0.70
2022-10-03T04:09:32.222Z,0.70
2022-10-03T04:12:10.833Z,0.80
2022-10-03T04:14:56.295Z,0.70
2022-10-03T04:17:56.530Z,0.80
2022-10-03T04:20:46.243Z,0.80
2022-10-03T04:23:27.437Z,0.67
2022-10-03T04:26:11.504Z,0.90
2022-10-03T04:29:00.580Z,0.90
2022-10-03T04:31:41.765Z,0.70
2022-10-03T04:34:21.123Z,0.90
2022-10-03T04:37:09.682Z,0.80
2022-10-03T04:39:45.697Z,0.70
2022-10-03T04:42:28.420Z,1.00
2022-10-03T04:45:14.284Z,0.83
2022-10-03T04:47:46.899Z,0.80
2022-10-03T04:50:32.758Z,0.90
2022-10-03T04:53:18.371Z,0.90
2022-10-03T04:55:50.538Z,0.70
2022-10-03T04:58:32.524Z,0.90
2022-10-03T05:01:15.209Z,0.97
2022-10-03T05:03:56.575Z,1.07
2022-10-03T05:06:34.517Z,0.80
2022-10-03T05:09:15.820Z,0.90
2022-10-03T05:11:55.735Z,0.80
2022-10-03T05:14:33.744Z,0.90
2022-10-03T05:17:12.830Z,0.90
2022-10-03T05:19:54.474Z,0.80
2022-10-03T05:22:33.937Z,1.03
2022-10-03T05:25:13.041Z,0.93
2022-10-03T05:27:51.944Z,0.80
2022-10-03T05:30:41.690Z,0.90
2022-10-03T05:33:21.566Z,0.90
2022-10-03T05:36:01.483Z,0.87
2022-10-03T05:38:55.164Z,0.80
2022-10-03T05:41:28.097Z,1.10
2022-10-03T05:44:04.490Z,0.80
2022-10-03T05:46:59.228Z,0.90
2022-10-03T05:49:58.328Z,0.80
2022-10-03T05:52:46.461Z,0.90
2022-10-03T05:55:38.149Z,0.80
2022-10-03T05:58:27.123Z,0.90
2022-10-03T06:01:26.391Z,1.00
2022-10-03T06:04:06.571Z,0.80
2022-10-03T06:06:53.335Z,0.90
2022-10-03T06:09:52.597Z,0.90
2022-10-03T06:12:29.041Z,0.80
2022-10-03T06:15:25.694Z,0.93
2022-10-03T06:18:02.575Z,1.00
2022-10-03T06:21:07.308Z,1.00
2022-10-03T06:23:50.827Z,1.00
2022-10-03T06:26:52.055Z,1.10
2022-10-03T06:29:59.610Z,1.13
2022-10-03T06:33:05.124Z,1.20
2022-10-03T06:36:14.443Z,1.20
2022-10-03T06:39:41.975Z,1.00
2022-10-03T06:42:37.541Z,1.30
2022-10-03T06:45:39.505Z,1.10
2022-10-03T06:48:51.532Z,1.20
2022-10-03T06:51:47.939Z,1.20
2022-10-03T06:54:48.213Z,1.30
2022-10-03T06:57:46.424Z,1.10
2022-10-03T07:00:19.152Z,1.20
2022-10-03T07:03:31.456Z,1.17
2022-10-03T07:06:35.825Z,1.30
2022-10-03T07:09:43.556Z,1.23
2022-10-03T07:12:55.117Z,1.30
2022-10-03T07:16:05.054Z,1.27
2022-10-03T07:19:17.700Z,1.30
2022-10-03T07:22:11.667Z,1.23
2022-10-03T07:25:12.960Z,1.50
2022-10-03T07:27:58.452Z,1.40
2022-10-03T07:30:31.615Z,1.40
2022-10-03T07:33:43.125Z,1.40
2022-10-03T07:37:03.544Z,1.43
2022-10-03T07:40:09.608Z,1.57
2022-10-03T07:43:17.072Z,1.53
2022-10-03T07:45:47.723Z,1.63
2022-10-03T07:48:36.229Z,1.90
2022-10-03T07:51:15.020Z,1.83
2022-10-03T07:54:29.921Z,1.90
2022-10-03T07:57:30.526Z,2.10
2022-10-03T08:00:22.619Z,1.80
2022-10-03T08:03:28.904Z,2.07
2022-10-03T08:06:24.642Z,2.27
2022-10-03T08:09:43.468Z,2.20
2022-10-03T08:12:46.453Z,2.47
2022-10-03T08:15:28.477Z,2.43
2022-10-03T08:18:37.651Z,2.40
2022-10-03T08:21:11.756Z,2.63
2022-10-03T08:24:18.810Z,2.10
2022-10-03T08:27:14.435Z,2.50
2022-10-03T08:30:07.451Z,2.10
2022-10-03T08:33:05.609Z,2.60
2022-10-03T08:36:01.135Z,2.10
2022-10-03T08:39:04.130Z,2.43
2022-10-03T08:42:05.324Z,2.50
2022-10-03T08:45:14.588Z,2.40
2022-10-03T08:48:21.094Z,2.30
2022-10-03T08:51:20.232Z,2.70
2022-10-03T08:54:13.581Z,2.70
2022-10-03T08:57:08.546Z,2.60
2022-10-03T09:00:05.815Z,2.60
2022-10-03T09:03:32.562Z,2.23
2022-10-03T09:06:33.145Z,2.50
2022-10-03T09:09:24.692Z,2.40
2022-10-03T09:12:32.793Z,2.40
2022-10-03T09:15:12.083Z,2.50
2022-10-03T09:18:07.592Z,2.67
2022-10-03T09:21:12.180Z,2.40
2022-10-03T09:24:18.928Z,2.40
2022-10-03T09:27:21.624Z,2.67
2022-10-03T09:30:15.369Z,2.13
2022-10-03T09:33:50.825Z,2.33
2022-10-03T09:36:47.771Z,2.50
2022-10-03T09:39:52.188Z,2.30
2022-10-03T09:42:52.666Z,2.23
2022-10-03T09:45:49.159Z,2.30
2022-10-03T09:49:17.145Z,2.53
2022-10-03T09:51:57.885Z,2.30
2022-10-03T09:54:47.669Z,2.30
2022-10-03T09:57:47.804Z,2.40
2022-10-03T10:00:23.223Z,2.23
2022-10-03T10:03:28.225Z,2.20
2022-10-03T10:06:30.318Z,2.30
2022-10-03T10:09:41.581Z,2.40
2022-10-03T10:12:45.540Z,2.43
2022-10-03T10:15:45.815Z,2.10
2022-10-03T10:18:36.539Z,2.43
2022-10-03T10:21:40.601Z,2.13
2022-10-03T10:24:36.446Z,2.07
2022-10-03T10:27:32.460Z,2.03
2022-10-03T10:30:20.965Z,2.20
2022-10-03T10:33:32.047Z,2.20
2022-10-03T10:36:42.499Z,2.37
2022-10-03T10:39:45.399Z,2.27
2022-10-03T10:43:15.538Z,2.43
2022-10-03T10:46:17.305Z,2.60
2022-10-03T10:49:31.901Z,2.30
2022-10-03T10:52:32.502Z,2.50
2022-10-03T10:55:44.069Z,2.40
2022-10-03T10:58:53.199Z,2.50
2022-10-03T11:02:14.914Z,2.17
2022-10-03T11:05:19.280Z,2.23
2022-10-03T11:08:26.911Z,2.50
2022-10-03T11:11:22.294Z,2.30
2022-10-03T11:14:19.421Z,2.30
2022-10-03T11:17:25.958Z,2.17
2022-10-03T11:20:22.921Z,1.90
2022-10-03T11:23:36.789Z,2.60
2022-10-03T11:26:46.293Z,2.30
2022-10-03T11:30:05.106Z,2.23
2022-10-03T11:33:14.440Z,2.30
2022-10-03T11:36:21.463Z,2.37
2022-10-03T11:39:03.736Z,2.20
2022-10-03T11:41:41.881Z,2.00
2022-10-03T11:44:23.196Z,2.10
2022-10-03T11:47:08.300Z,2.10
2022-10-03T11:49:59.002Z,1.70
2022-10-03T11:52:33.040Z,1.87
2022-10-03T11:55:20.945Z,1.90
2022-10-03T11:58:00.229Z,1.73
2022-10-03T12:00:36.790Z,1.60
2022-10-03T12:03:17.381Z,1.57
2022-10-03T12:06:17.709Z,1.37
2022-10-03T12:08:55.719Z,1.40
2022-10-03T12:11:28.306Z,1.50
2022-10-03T12:14:23.615Z,1.20
2022-10-03T12:17:03.143Z,1.60
2022-10-03T12:19:37.384Z,1.27
2022-10-03T12:22:16.813Z,1.00
2022-10-03T12:24:46.226Z,1.00
2022-10-03T12:27:23.836Z,1.37
2022-10-03T12:29:58.814Z,1.13
2022-10-03T12:32:38.351Z,1.30
2022-10-03T12:35:22.904Z,1.10
2022-10-03T12:38:07.983Z,1.00
2022-10-03T12:40:41.266Z,1.20
2022-10-03T12:43:27.726Z,1.20
2022-10-03T12:46:01.548Z,1.40
2022-10-03T12:48:47.895Z,1.50
2022-10-03T12:51:34.847Z,1.60
2022-10-03T12:54:18.380Z,1.70
2022-10-03T12:56:50.553Z,1.70
2022-10-03T12:59:31.652Z,1.80
2022-10-03T13:02:25.414Z,1.70
2022-10-03T13:05:08.966Z,1.90
2022-10-03T13:07:52.929Z,1.90
2022-10-03T13:10:32.801Z,2.00
2022-10-03T13:13:13.781Z,2.40
2022-10-03T13:16:05.968Z,2.30
2022-10-03T13:18:44.177Z,2.20
2022-10-03T13:21:44.316Z,2.20
2022-10-03T13:24:16.723Z,2.10
2022-10-03T13:26:54.388Z,1.90
2022-10-03T13:29:39.019Z,1.80
2022-10-03T13:32:16.228Z,1.90
2022-10-03T13:35:46.395Z,1.80
2022-10-03T13:38:48.426Z,1.57
2022-10-03T13:41:27.556Z,1.80
2022-10-03T13:44:00.523Z,1.70
2022-10-03T13:46:38.454Z,1.70
2022-10-03T13:49:18.569Z,1.80
2022-10-03T13:51:58.734Z,1.80
2022-10-03T13:54:51.383Z,1.73
2022-10-03T13:57:26.100Z,1.40
2022-10-03T14:00:04.488Z,1.40
2022-10-03T14:02:59.883Z,1.40
2022-10-03T14:05:51.345Z,1.50
2022-10-03T14:08:44.600Z,1.70
2022-10-03T14:11:23.859Z,1.80
2022-10-03T14:14:28.715Z,1.57
2022-10-03T14:17:03.488Z,1.80
2022-10-03T14:19:41.525Z,1.60
2022-10-03T14:22:22.735Z,1.47
2022-10-03T14:25:01.478Z,1.60
2022-10-03T14:27:42.166Z,1.80
2022-10-03T14:30:15.496Z,1.70
2022-10-03T14:33:10.953Z,1.70
2022-10-03T14:35:44.965Z,1.60
2022-10-03T14:38:47.002Z,1.53
2022-10-03T14:41:20.866Z,1.50
2022-10-03T14:43:53.369Z,1.63
2022-10-03T14:46:26.059Z,1.60
2022-10-03T14:48:58.837Z,1.60
2022-10-03T14:51:31.047Z,1.70
2022-10-03T14:54:02.814Z,1.60
2022-10-03T14:56:35.561Z,1.60
2022-10-03T14:59:13.085Z,1.67
2022-10-03T15:01:51.099Z,1.80
2022-10-03T15:04:29.243Z,1.63
2022-10-03T15:07:00.599Z,1.60
2022-10-03T15:09:42.622Z,1.70
2022-10-03T15:12:16.646Z,1.80
2022-10-03T15:14:49.214Z,1.70
2022-10-03T15:17:23.301Z,1.50
2022-10-03T15:19:54.906Z,1.87
2022-10-03T15:22:32.130Z,1.80
2022-10-03T15:25:06.115Z,1.80
2022-10-03T15:27:36.042Z,1.77
2022-10-03T15:30:06.876Z,1.67
2022-10-03T15:32:39.420Z,1.70
2022-10-03T15:35:08.139Z,1.60
2022-10-03T15:37:47.468Z,1.70
2022-10-03T15:40:26.100Z,1.73
2022-10-03T15:43:04.916Z,1.80
2022-10-03T15:45:36.144Z,1.50
2022-10-03T15:48:08.297Z,1.50
2022-10-03T15:50:41.026Z,1.50
2022-10-03T15:53:34.967Z,1.40
2022-10-03T15:56:12.251Z,1.23
2022-10-03T15:58:47.722Z,1.30
2022-10-03T16:01:21.665Z,1.30
2022-10-03T16:03:52.514Z,1.33
2022-10-03T16:06:24.002Z,1.50
2022-10-03T16:09:00.815Z,1.30
2022-10-03T16:11:33.433Z,1.70
2022-10-03T16:14:16.616Z,1.60
2022-10-03T16:16:49.556Z,1.60
2022-10-03T16:19:31.330Z,1.60
2022-10-03T16:22:14.898Z,1.50
2022-10-03T16:24:49.938Z,1.60
2022-10-03T16:27:20.819Z,1.50
2022-10-03T16:29:58.805Z,1.70
2022-10-03T16:32:31.235Z,1.70
2022-10-03T16:35:03.748Z,1.63
2022-10-03T16:37:33.201Z,1.60
2022-10-03T16:40:03.779Z,1.50
2022-10-03T16:42:43.124Z,1.60
2022-10-03T16:45:23.297Z,1.80
2022-10-03T16:48:13.420Z,1.60
2022-10-03T16:50:47.528Z,1.40
2022-10-03T16:53:16.211Z,1.50
2022-10-03T16:55:48.681Z,1.30
2022-10-03T16:58:21.676Z,1.30
2022-10-03T17:01:22.082Z,1.27
2022-10-03T17:03:48.995Z,1.07
2022-10-03T17:06:22.263Z,1.03
2022-10-03T17:08:52.983Z,0.90
2022-10-03T17:11:26.211Z,0.93
2022-10-03T17:13:56.551Z,0.90
2022-10-03T17:16:34.499Z,0.90
2022-10-03T17:19:14.528Z,0.80
2022-10-03T17:21:53.862Z,0.90
2022-10-03T17:24:43.563Z,0.90
2022-10-03T17:27:19.835Z,0.70
2022-10-03T17:29:56.510Z,0.80
2022-10-03T17:32:27.066Z,0.67
2022-10-03T17:35:01.923Z,0.80
2022-10-03T17:38:37.524Z,0.70
2022-10-03T17:41:18.504Z,0.73
2022-10-03T17:43:54.469Z,0.90
2022-10-03T17:46:32.313Z,0.87
2022-10-03T17:49:10.077Z,1.00
2022-10-03T17:51:41.948Z,0.90
2022-10-03T17:54:15.360Z,1.00
2022-10-03T17:56:48.017Z,1.10
2022-10-03T17:59:21.273Z,0.97
2022-10-03T18:01:53.092Z,0.90
2022-10-03T18:04:29.125Z,1.10
2022-10-03T18:06:59.493Z,0.97
2022-10-03T18:09:32.200Z,1.00
2022-10-03T18:12:16.350Z,1.00
2022-10-03T18:15:02.521Z,1.00
2022-10-03T18:17:41.355Z,1.00
2022-10-03T18:20:32.084Z,0.90
2022-10-03T18:23:02.420Z,1.20
2022-10-03T18:26:18.231Z,1.10
2022-10-03T18:28:46.568Z,0.83
2022-10-03T18:31:19.456Z,1.20
2022-10-03T18:33:52.574Z,1.13
2022-10-03T18:36:24.927Z,1.10
2022-10-03T18:38:56.629Z,1.30
2022-10-03T18:41:25.850Z,1.07
2022-10-03T18:43:59.926Z,1.07
2022-10-03T18:46:33.352Z,1.10
2022-10-03T18:49:32.507Z,1.40
2022-10-03T18:52:00.526Z,1.20
2022-10-03T18:54:38.454Z,1.37
2022-10-03T18:57:11.788Z,1.43
2022-10-03T18:59:52.321Z,1.40
2022-10-03T19:02:31.941Z,1.70
2022-10-03T19:05:08.585Z,1.80
2022-10-03T19:07:44.117Z,1.70
2022-10-03T19:10:27.673Z,1.80
2022-10-03T19:13:04.573Z,1.90
2022-10-03T19:15:45.852Z,2.30
2022-10-03T19:18:22.963Z,2.40
2022-10-03T19:20:55.388Z,2.80
2022-10-03T19:23:27.650Z,3.10
2022-10-03T19:25:58.491Z,2.93
2022-10-03T19:28:31.035Z,3.67
2022-10-03T19:31:06.745Z,3.50
2022-10-03T19:33:43.817Z,3.30
2022-10-03T19:36:18.276Z,3.63
2022-10-03T19:38:48.927Z,3.53
2022-10-03T19:41:30.673Z,3.70
2022-10-03T19:44:04.177Z,3.33
2022-10-03T19:47:05.282Z,3.80
2022-10-03T19:49:54.308Z,4.20
2022-10-03T19:52:30.621Z,3.40
2022-10-03T19:55:04.705Z,4.23
2022-10-03T19:57:41.668Z,3.80
2022-10-03T20:00:22.848Z,3.97
2022-10-03T20:02:57.604Z,3.83
2022-10-03T20:05:30.402Z,3.70
2022-10-03T20:08:03.915Z,4.20
2022-10-03T20:10:45.237Z,3.53
2022-10-03T20:13:13.989Z,3.90
2022-10-03T20:15:44.959Z,4.03
2022-10-03T20:18:22.273Z,4.23
2022-10-03T20:20:53.975Z,4.70
2022-10-03T20:23:24.590Z,4.23
2022-10-03T20:25:59.428Z,4.00
2022-10-03T20:28:42.925Z,4.33
2022-10-03T20:31:12.029Z,5.13
2022-10-03T20:33:44.006Z,4.33
2022-10-03T20:36:18.832Z,4.00
2022-10-03T20:39:04.510Z,4.00
2022-10-03T20:41:40.840Z,3.70
2022-10-03T20:44:19.620Z,3.77
2022-10-03T20:46:51.209Z,4.37
2022-10-03T20:49:31.229Z,4.17
2022-10-03T20:52:04.231Z,4.60
2022-10-03T20:54:37.438Z,4.33
2022-10-03T20:57:16.266Z,4.53
2022-10-03T20:59:48.079Z,4.67
2022-10-03T21:02:29.861Z,4.60
2022-10-03T21:05:03.988Z,3.67
2022-10-03T21:07:37.809Z,4.50
2022-10-03T21:10:21.801Z,4.10
2022-10-03T21:12:52.921Z,4.07
2022-10-03T21:15:36.331Z,4.00
2022-10-03T21:18:05.564Z,4.03
2022-10-03T21:20:39.605Z,4.50
2022-10-03T21:23:16.510Z,3.97
2022-10-03T21:25:45.462Z,4.23
2022-10-03T21:28:25.540Z,4.27
2022-10-03T21:31:08.512Z,4.60
2022-10-03T21:33:43.113Z,4.20
2022-10-03T21:36:22.186Z,4.17
2022-10-03T21:38:52.286Z,4.13
2022-10-03T21:41:37.610Z,4.00
2022-10-03T21:44:14.435Z,3.93
2022-10-03T21:46:52.339Z,4.60
2022-10-03T21:49:39.066Z,4.80
2022-10-03T21:52:23.697Z,4.60
2022-10-03T21:55:04.176Z,4.87
2022-10-03T21:57:46.673Z,4.43
2022-10-03T22:00:16.474Z,5.10
2022-10-03T22:02:57.629Z,4.43
2022-10-03T22:05:39.330Z,4.60
2022-10-03T22:08:24.325Z,4.77
2022-10-03T22:11:08.368Z,4.80
2022-10-03T22:13:38.602Z,4.37
2022-10-03T22:16:14.101Z,4.37
2022-10-03T22:19:07.310Z,4.50
2022-10-03T22:21:42.595Z,4.77
2022-10-03T22:24:18.494Z,4.80
2022-10-03T22:26:52.297Z,5.13
2022-10-03T22:29:27.950Z,4.73
2022-10-03T22:32:02.973Z,4.97
2022-10-03T22:34:42.246Z,4.73
2022-10-03T22:37:10.577Z,5.13
2022-10-03T22:39:40.313Z,5.20
2022-10-03T22:42:08.547Z,5.00
2022-10-03T22:44:39.231Z,5.30
2022-10-03T22:47:15.005Z,4.70
2022-10-03T22:49:46.309Z,5.20
2022-10-03T22:52:20.178Z,4.90
2022-10-03T22:54:51.151Z,5.37
2022-10-03T22:57:20.227Z,5.43
2022-10-03T22:59:51.725Z,5.23
2022-10-03T23:02:27.063Z,5.10
2022-10-03T23:05:00.243Z,4.67
2022-10-03T23:07:54.643Z,5.50
2022-10-03T23:10:43.659Z,5.07
2022-10-03T23:13:19.209Z,5.10
2022-10-03T23:15:51.580Z,5.07
2022-10-03T23:18:41.320Z,5.13
2022-10-03T23:21:11.240Z,5.23
2022-10-03T23:23:48.214Z,5.60
2022-10-03T23:26:42.170Z,4.60
2022-10-03T23:29:13.365Z,3.30
2022-10-03T23:31:56.697Z,3.33
2022-10-03T23:35:14.351Z,3.40
2022-10-03T23:37:44.213Z,3.03
2022-10-03T23:40:37.278Z,2.90
2022-10-03T23:43:24.321Z,2.70
2022-10-03T23:45:53.633Z,2.60
2022-10-03T23:48:24.918Z,2.63
2022-10-03T23:50:55.461Z,2.50
2022-10-03T23:53:31.069Z,2.90
2022-10-03T23:56:00.685Z,2.90
2022-10-03T23:58:32.605Z,3.00
